sensor_id;sensor_type;location;lat;lon;timestamp;pressure;altitude;pressure_sealevel;temperature
66403;BMP180;53212;52.112;5.144;2022-10-16T00:01:21;100865.60;;;13.40
66403;BMP180;53212;52.112;5.144;2022-10-16T00:03:48;100864.80;;;13.34
66403;BMP180;53212;52.112;5.144;2022-10-16T00:06:15;100865.20;;;13.30
66403;BMP180;53212;52.112;5.144;2022-10-16T00:08:42;100867.00;;;13.30
66403;BMP180;53212;52.112;5.144;2022-10-16T00:11:13;100870.60;;;13.30
66403;BMP180;53212;52.112;5.144;2022-10-16T00:13:41;100870.60;;;13.26
66403;BMP180;53212;52.112;5.144;2022-10-16T00:16:09;100878.00;;;13.22
66403;BMP180;53212;52.112;5.144;2022-10-16T00:18:34;100871.20;;;13.24
66403;BMP180;53212;52.112;5.144;2022-10-16T00:21:09;100871.00;;;13.20
66403;BMP180;53212;52.112;5.144;2022-10-16T00:23:35;100876.40;;;13.20
66403;BMP180;53212;52.112;5.144;2022-10-16T00:26:05;100873.40;;;13.20
66403;BMP180;53212;52.112;5.144;2022-10-16T00:28:31;100871.60;;;13.20
66403;BMP180;53212;52.112;5.144;2022-10-16T00:30:57;100859.60;;;13.20
66403;BMP180;53212;52.112;5.144;2022-10-16T00:33:22;100863.00;;;13.30
66403;BMP180;53212;52.112;5.144;2022-10-16T00:35:48;100863.40;;;13.30
66403;BMP180;53212;52.112;5.144;2022-10-16T00:38:14;100855.20;;;13.30
66403;BMP180;53212;52.112;5.144;2022-10-16T00:40:40;100862.60;;;13.30
66403;BMP180;53212;52.112;5.144;2022-10-16T00:45:58;100861.20;;;13.40
66403;BMP180;53212;52.112;5.144;2022-10-16T00:48:23;100861.40;;;13.40
66403;BMP180;53212;52.112;5.144;2022-10-16T00:50:49;100866.80;;;13.40
66403;BMP180;53212;52.112;5.144;2022-10-16T00:53:16;100872.20;;;13.40
66403;BMP180;53212;52.112;5.144;2022-10-16T00:55:42;100878.80;;;13.48
66403;BMP180;53212;52.112;5.144;2022-10-16T00:58:07;100870.60;;;13.50
66403;BMP180;53212;52.112;5.144;2022-10-16T01:00:33;100876.80;;;13.54
66403;BMP180;53212;52.112;5.144;2022-10-16T01:03:00;100880.60;;;13.60
66403;BMP180;53212;52.112;5.144;2022-10-16T01:05:45;100889.80;;;13.60
66403;BMP180;53212;52.112;5.144;2022-10-16T01:08:28;100894.60;;;13.64
66403;BMP180;53212;52.112;5.144;2022-10-16T01:11:11;100882.40;;;13.70
66403;BMP180;53212;52.112;5.144;2022-10-16T01:13:43;100880.60;;;13.70
66403;BMP180;53212;52.112;5.144;2022-10-16T01:16:19;100878.60;;;13.70
66403;BMP180;53212;52.112;5.144;2022-10-16T01:18:57;100876.60;;;13.70
66403;BMP180;53212;52.112;5.144;2022-10-16T01:21:31;100878.60;;;13.70
66403;BMP180;53212;52.112;5.144;2022-10-16T01:24:43;100879.80;;;13.70
66403;BMP180;53212;52.112;5.144;2022-10-16T01:27:25;100884.20;;;13.70
66403;BMP180;53212;52.112;5.144;2022-10-16T01:29:56;100884.00;;;13.70
66403;BMP180;53212;52.112;5.144;2022-10-16T01:32:59;100886.80;;;13.70
66403;BMP180;53212;52.112;5.144;2022-10-16T01:35:35;100888.40;;;13.70
66403;BMP180;53212;52.112;5.144;2022-10-16T01:38:17;100884.20;;;13.70
66403;BMP180;53212;52.112;5.144;2022-10-16T01:40:50;100857.20;;;13.70
66403;BMP180;53212;52.112;5.144;2022-10-16T01:43:25;100827.40;;;13.70
66403;BMP180;53212;52.112;5.144;2022-10-16T01:45:52;100811.60;;;13.60
66403;BMP180;53212;52.112;5.144;2022-10-16T01:48:19;100826.00;;;13.60
66403;BMP180;53212;52.112;5.144;2022-10-16T01:50:59;100836.40;;;13.50
66403;BMP180;53212;52.112;5.144;2022-10-16T01:53:26;100847.40;;;13.50
66403;BMP180;53212;52.112;5.144;2022-10-16T01:55:54;100854.00;;;13.50
66403;BMP180;53212;52.112;5.144;2022-10-16T01:58:21;100853.00;;;13.40
66403;BMP180;53212;52.112;5.144;2022-10-16T02:00:48;100854.00;;;13.40
66403;BMP180;53212;52.112;5.144;2022-10-16T02:03:16;100861.20;;;13.40
66403;BMP180;53212;52.112;5.144;2022-10-16T02:05:53;100862.20;;;13.40
66403;BMP180;53212;52.112;5.144;2022-10-16T02:08:20;100868.60;;;13.40
66403;BMP180;53212;52.112;5.144;2022-10-16T02:10:46;100872.40;;;13.40
66403;BMP180;53212;52.112;5.144;2022-10-16T02:13:26;100874.00;;;13.40
66403;BMP180;53212;52.112;5.144;2022-10-16T02:15:53;100873.20;;;13.40
66403;BMP180;53212;52.112;5.144;2022-10-16T02:18:18;100878.00;;;13.30
66403;BMP180;53212;52.112;5.144;2022-10-16T02:20:59;100870.40;;;13.30
66403;BMP180;53212;52.112;5.144;2022-10-16T02:24:07;100871.20;;;13.20
66403;BMP180;53212;52.112;5.144;2022-10-16T02:26:43;100882.80;;;13.20
66403;BMP180;53212;52.112;5.144;2022-10-16T02:29:14;100885.40;;;13.10
66403;BMP180;53212;52.112;5.144;2022-10-16T02:31:45;100883.60;;;13.10
66403;BMP180;53212;52.112;5.144;2022-10-16T02:34:13;100882.80;;;13.00
66403;BMP180;53212;52.112;5.144;2022-10-16T02:36:40;100883.80;;;13.00
66403;BMP180;53212;52.112;5.144;2022-10-16T02:39:07;100890.00;;;13.00
66403;BMP180;53212;52.112;5.144;2022-10-16T02:41:33;100892.60;;;13.00
66403;BMP180;53212;52.112;5.144;2022-10-16T02:43:59;100888.40;;;13.04
66403;BMP180;53212;52.112;5.144;2022-10-16T02:46:24;100891.40;;;13.10
66403;BMP180;53212;52.112;5.144;2022-10-16T02:48:50;100896.80;;;13.10
66403;BMP180;53212;52.112;5.144;2022-10-16T02:51:15;100893.80;;;13.10
66403;BMP180;53212;52.112;5.144;2022-10-16T02:53:40;100897.80;;;13.10
66403;BMP180;53212;52.112;5.144;2022-10-16T02:56:06;100900.60;;;13.10
66403;BMP180;53212;52.112;5.144;2022-10-16T02:58:31;100898.40;;;13.10
66403;BMP180;53212;52.112;5.144;2022-10-16T03:00:57;100903.00;;;13.12
66403;BMP180;53212;52.112;5.144;2022-10-16T03:03:22;100894.20;;;13.18
66403;BMP180;53212;52.112;5.144;2022-10-16T03:05:48;100901.00;;;13.20
66403;BMP180;53212;52.112;5.144;2022-10-16T03:08:13;100890.20;;;13.20
66403;BMP180;53212;52.112;5.144;2022-10-16T03:10:39;100884.80;;;13.20
66403;BMP180;53212;52.112;5.144;2022-10-16T03:13:04;100881.20;;;13.20
66403;BMP180;53212;52.112;5.144;2022-10-16T03:15:30;100880.80;;;13.20
66403;BMP180;53212;52.112;5.144;2022-10-16T03:17:59;100880.40;;;13.18
66403;BMP180;53212;52.112;5.144;2022-10-16T03:20:25;100882.40;;;13.10
66403;BMP180;53212;52.112;5.144;2022-10-16T03:22:51;100890.40;;;13.10
66403;BMP180;53212;52.112;5.144;2022-10-16T03:25:17;100886.40;;;13.08
66403;BMP180;53212;52.112;5.144;2022-10-16T03:27:42;100885.80;;;13.00
66403;BMP180;53212;52.112;5.144;2022-10-16T03:30:08;100891.20;;;13.00
66403;BMP180;53212;52.112;5.144;2022-10-16T03:32:34;100893.80;;;12.98
66403;BMP180;53212;52.112;5.144;2022-10-16T03:34:59;100909.80;;;12.90
66403;BMP180;53212;52.112;5.144;2022-10-16T03:37:25;100905.40;;;12.90
66403;BMP180;53212;52.112;5.144;2022-10-16T03:39:50;100915.60;;;12.90
66403;BMP180;53212;52.112;5.144;2022-10-16T03:42:16;100912.40;;;12.90
66403;BMP180;53212;52.112;5.144;2022-10-16T03:44:42;100921.80;;;12.88
66403;BMP180;53212;52.112;5.144;2022-10-16T03:47:07;100920.80;;;12.80
66403;BMP180;53212;52.112;5.144;2022-10-16T03:49:32;100918.40;;;12.80
66403;BMP180;53212;52.112;5.144;2022-10-16T03:51:58;100922.40;;;12.80
66403;BMP180;53212;52.112;5.144;2022-10-16T03:54:23;100922.20;;;12.78
66403;BMP180;53212;52.112;5.144;2022-10-16T03:56:49;100919.60;;;12.70
66403;BMP180;53212;52.112;5.144;2022-10-16T03:59:14;100914.80;;;12.80
66403;BMP180;53212;52.112;5.144;2022-10-16T04:01:40;100925.60;;;12.80
66403;BMP180;53212;52.112;5.144;2022-10-16T04:04:05;100934.20;;;12.80
66403;BMP180;53212;52.112;5.144;2022-10-16T04:06:31;100934.60;;;12.80
66403;BMP180;53212;52.112;5.144;2022-10-16T04:08:56;100935.00;;;12.80
66403;BMP180;53212;52.112;5.144;2022-10-16T04:11:22;100936.80;;;12.82
66403;BMP180;53212;52.112;5.144;2022-10-16T04:13:47;100941.80;;;12.88
66403;BMP180;53212;52.112;5.144;2022-10-16T04:16:13;100939.40;;;12.90
66403;BMP180;53212;52.112;5.144;2022-10-16T04:18:38;100944.00;;;12.90
66403;BMP180;53212;52.112;5.144;2022-10-16T04:21:05;100949.80;;;12.90
66403;BMP180;53212;52.112;5.144;2022-10-16T04:23:31;100950.40;;;12.90
66403;BMP180;53212;52.112;5.144;2022-10-16T04:25:57;100951.20;;;12.90
66403;BMP180;53212;52.112;5.144;2022-10-16T04:28:22;100956.60;;;12.90
66403;BMP180;53212;52.112;5.144;2022-10-16T04:30:47;100959.80;;;12.90
66403;BMP180;53212;52.112;5.144;2022-10-16T04:33:13;100965.40;;;12.90
66403;BMP180;53212;52.112;5.144;2022-10-16T04:35:38;100968.00;;;12.92
66403;BMP180;53212;52.112;5.144;2022-10-16T04:38:04;100970.00;;;12.94
66403;BMP180;53212;52.112;5.144;2022-10-16T04:40:30;100978.60;;;12.94
66403;BMP180;53212;52.112;5.144;2022-10-16T04:42:59;100976.00;;;12.90
66403;BMP180;53212;52.112;5.144;2022-10-16T04:45:24;100978.80;;;12.90
66403;BMP180;53212;52.112;5.144;2022-10-16T04:47:50;100979.20;;;12.90
66403;BMP180;53212;52.112;5.144;2022-10-16T04:50:16;100977.40;;;12.82
66403;BMP180;53212;52.112;5.144;2022-10-16T04:52:41;100980.80;;;12.80
66403;BMP180;53212;52.112;5.144;2022-10-16T04:55:07;100983.00;;;12.80
66403;BMP180;53212;52.112;5.144;2022-10-16T04:57:33;100982.00;;;12.80
66403;BMP180;53212;52.112;5.144;2022-10-16T04:59:59;100989.00;;;12.74
66403;BMP180;53212;52.112;5.144;2022-10-16T05:02:24;100995.20;;;12.70
66403;BMP180;53212;52.112;5.144;2022-10-16T05:04:51;101003.40;;;12.70
66403;BMP180;53212;52.112;5.144;2022-10-16T05:07:16;101008.60;;;12.72
66403;BMP180;53212;52.112;5.144;2022-10-16T05:09:41;101018.20;;;12.74
66403;BMP180;53212;52.112;5.144;2022-10-16T05:12:07;101021.20;;;12.70
66403;BMP180;53212;52.112;5.144;2022-10-16T05:14:32;101029.80;;;12.70
66403;BMP180;53212;52.112;5.144;2022-10-16T05:17:00;101029.20;;;12.70
66403;BMP180;53212;52.112;5.144;2022-10-16T05:19:25;101032.20;;;12.72
66403;BMP180;53212;52.112;5.144;2022-10-16T05:21:51;101026.60;;;12.74
66403;BMP180;53212;52.112;5.144;2022-10-16T05:24:16;101028.60;;;12.76
66403;BMP180;53212;52.112;5.144;2022-10-16T05:26:42;101037.40;;;12.80
66403;BMP180;53212;52.112;5.144;2022-10-16T05:29:07;101050.80;;;12.80
66403;BMP180;53212;52.112;5.144;2022-10-16T05:31:32;101048.60;;;12.80
66403;BMP180;53212;52.112;5.144;2022-10-16T05:33:59;101047.40;;;12.80
66403;BMP180;53212;52.112;5.144;2022-10-16T05:36:25;101049.40;;;12.80
66403;BMP180;53212;52.112;5.144;2022-10-16T05:38:51;101055.00;;;12.84
66403;BMP180;53212;52.112;5.144;2022-10-16T05:41:19;101062.00;;;12.88
66403;BMP180;53212;52.112;5.144;2022-10-16T05:43:48;101065.20;;;12.90
66403;BMP180;53212;52.112;5.144;2022-10-16T05:46:15;101070.60;;;12.90
66403;BMP180;53212;52.112;5.144;2022-10-16T05:48:40;101073.20;;;12.90
66403;BMP180;53212;52.112;5.144;2022-10-16T05:51:09;101077.40;;;12.90
66403;BMP180;53212;52.112;5.144;2022-10-16T05:53:37;101086.00;;;12.90
66403;BMP180;53212;52.112;5.144;2022-10-16T05:56:05;101084.60;;;12.90
66403;BMP180;53212;52.112;5.144;2022-10-16T05:58:35;101091.20;;;12.90
66403;BMP180;53212;52.112;5.144;2022-10-16T06:01:11;101087.00;;;12.90
66403;BMP180;53212;52.112;5.144;2022-10-16T06:03:37;101092.80;;;13.00
66403;BMP180;53212;52.112;5.144;2022-10-16T06:06:14;101094.40;;;13.00
66403;BMP180;53212;52.112;5.144;2022-10-16T06:08:42;101100.60;;;13.00
66403;BMP180;53212;52.112;5.144;2022-10-16T06:11:12;101100.00;;;13.00
66403;BMP180;53212;52.112;5.144;2022-10-16T06:13:38;101111.80;;;13.00
66403;BMP180;53212;52.112;5.144;2022-10-16T06:16:05;101119.40;;;12.98
66403;BMP180;53212;52.112;5.144;2022-10-16T06:18:31;101126.60;;;12.94
66403;BMP180;53212;52.112;5.144;2022-10-16T06:20:57;101118.80;;;13.00
66403;BMP180;53212;52.112;5.144;2022-10-16T06:23:23;101113.60;;;13.00
66403;BMP180;53212;52.112;5.144;2022-10-16T06:25:49;101106.40;;;13.00
66403;BMP180;53212;52.112;5.144;2022-10-16T06:28:15;101112.00;;;12.98
66403;BMP180;53212;52.112;5.144;2022-10-16T06:30:41;101113.60;;;13.00
66403;BMP180;53212;52.112;5.144;2022-10-16T06:33:09;101122.00;;;13.00
66403;BMP180;53212;52.112;5.144;2022-10-16T06:35:35;101109.40;;;13.00
66403;BMP180;53212;52.112;5.144;2022-10-16T06:38:00;101120.40;;;13.00
66403;BMP180;53212;52.112;5.144;2022-10-16T06:40:26;101117.60;;;13.00
66403;BMP180;53212;52.112;5.144;2022-10-16T06:42:54;101127.40;;;13.00
66403;BMP180;53212;52.112;5.144;2022-10-16T06:45:20;101126.00;;;13.00
66403;BMP180;53212;52.112;5.144;2022-10-16T06:47:45;101121.40;;;13.00
66403;BMP180;53212;52.112;5.144;2022-10-16T06:50:11;101137.20;;;13.00
66403;BMP180;53212;52.112;5.144;2022-10-16T06:52:36;101136.80;;;13.04
66403;BMP180;53212;52.112;5.144;2022-10-16T06:55:02;101135.20;;;13.10
66403;BMP180;53212;52.112;5.144;2022-10-16T06:57:28;101141.00;;;13.12
66403;BMP180;53212;52.112;5.144;2022-10-16T06:59:54;101147.00;;;13.20
66403;BMP180;53212;52.112;5.144;2022-10-16T07:02:19;101148.20;;;13.30
66403;BMP180;53212;52.112;5.144;2022-10-16T07:04:44;101152.80;;;13.30
66403;BMP180;53212;52.112;5.144;2022-10-16T07:07:10;101163.80;;;13.30
66403;BMP180;53212;52.112;5.144;2022-10-16T07:09:35;101161.00;;;13.40
66403;BMP180;53212;52.112;5.144;2022-10-16T07:12:01;101165.60;;;13.40
66403;BMP180;53212;52.112;5.144;2022-10-16T07:14:26;101175.00;;;13.50
66403;BMP180;53212;52.112;5.144;2022-10-16T07:16:52;101171.20;;;13.50
66403;BMP180;53212;52.112;5.144;2022-10-16T07:19:18;101175.80;;;13.60
66403;BMP180;53212;52.112;5.144;2022-10-16T07:21:44;101178.40;;;13.60
66403;BMP180;53212;52.112;5.144;2022-10-16T07:24:15;101185.20;;;13.62
66403;BMP180;53212;52.112;5.144;2022-10-16T07:26:42;101192.80;;;13.70
66403;BMP180;53212;52.112;5.144;2022-10-16T07:29:18;101200.80;;;13.72
66403;BMP180;53212;52.112;5.144;2022-10-16T07:31:45;101204.80;;;13.80
66403;BMP180;53212;52.112;5.144;2022-10-16T07:34:13;101211.40;;;13.86
66403;BMP180;53212;52.112;5.144;2022-10-16T07:36:39;101218.20;;;13.86
66403;BMP180;53212;52.112;5.144;2022-10-16T07:39:04;101220.60;;;13.80
66403;BMP180;53212;52.112;5.144;2022-10-16T07:41:30;101232.20;;;13.80
66403;BMP180;53212;52.112;5.144;2022-10-16T07:43:58;101238.00;;;13.70
66403;BMP180;53212;52.112;5.144;2022-10-16T07:46:26;101244.40;;;13.60
66403;BMP180;53212;52.112;5.144;2022-10-16T07:48:52;101249.60;;;13.60
66403;BMP180;53212;52.112;5.144;2022-10-16T07:51:20;101254.40;;;13.60
66403;BMP180;53212;52.112;5.144;2022-10-16T07:53:46;101257.00;;;13.60
66403;BMP180;53212;52.112;5.144;2022-10-16T07:56:13;101260.00;;;13.68
66403;BMP180;53212;52.112;5.144;2022-10-16T07:58:40;101252.60;;;13.70
66403;BMP180;53212;52.112;5.144;2022-10-16T08:01:08;101267.40;;;13.70
66403;BMP180;53212;52.112;5.144;2022-10-16T08:03:34;101267.00;;;13.72
66403;BMP180;53212;52.112;5.144;2022-10-16T08:06:00;101269.20;;;13.80
66403;BMP180;53212;52.112;5.144;2022-10-16T08:08:27;101268.40;;;13.80
66403;BMP180;53212;52.112;5.144;2022-10-16T08:10:52;101271.00;;;13.80
66403;BMP180;53212;52.112;5.144;2022-10-16T08:13:18;101279.60;;;13.88
66403;BMP180;53212;52.112;5.144;2022-10-16T08:15:44;101278.20;;;13.90
66403;BMP180;53212;52.112;5.144;2022-10-16T08:18:12;101280.00;;;13.90
66403;BMP180;53212;52.112;5.144;2022-10-16T08:20:39;101287.80;;;14.00
66403;BMP180;53212;52.112;5.144;2022-10-16T08:23:05;101287.00;;;14.00
66403;BMP180;53212;52.112;5.144;2022-10-16T08:25:31;101291.20;;;14.00
66403;BMP180;53212;52.112;5.144;2022-10-16T08:27:56;101294.80;;;14.06
66403;BMP180;53212;52.112;5.144;2022-10-16T08:30:23;101301.80;;;14.10
66403;BMP180;53212;52.112;5.144;2022-10-16T08:32:49;101299.60;;;14.10
66403;BMP180;53212;52.112;5.144;2022-10-16T08:35:15;101307.20;;;14.20
66403;BMP180;53212;52.112;5.144;2022-10-16T08:37:41;101301.20;;;14.30
66403;BMP180;53212;52.112;5.144;2022-10-16T08:40:16;101309.80;;;14.40
66403;BMP180;53212;52.112;5.144;2022-10-16T08:45:49;101318.80;;;14.50
66403;BMP180;53212;52.112;5.144;2022-10-16T08:48:31;101321.80;;;14.60
66403;BMP180;53212;52.112;5.144;2022-10-16T08:51:02;101323.80;;;14.70
66403;BMP180;53212;52.112;5.144;2022-10-16T08:56:22;101334.80;;;14.80
66403;BMP180;53212;52.112;5.144;2022-10-16T08:58:49;101336.20;;;14.80
66403;BMP180;53212;52.112;5.144;2022-10-16T09:01:17;101335.60;;;14.80
66403;BMP180;53212;52.112;5.144;2022-10-16T09:07:04;101343.80;;;15.00
66403;BMP180;53212;52.112;5.144;2022-10-16T09:15:40;101362.20;;;15.20
66403;BMP180;53212;52.112;5.144;2022-10-16T09:20:55;101361.60;;;15.50
66403;BMP180;53212;52.112;5.144;2022-10-16T09:23:29;101368.00;;;15.80
66403;BMP180;53212;52.112;5.144;2022-10-16T09:25:56;101372.00;;;16.00
66403;BMP180;53212;52.112;5.144;2022-10-16T09:28:23;101374.20;;;16.14
66403;BMP180;53212;52.112;5.144;2022-10-16T09:30:49;101372.80;;;16.40
66403;BMP180;53212;52.112;5.144;2022-10-16T09:33:17;101386.00;;;16.50
66403;BMP180;53212;52.112;5.144;2022-10-16T09:35:50;101382.00;;;16.70
66403;BMP180;53212;52.112;5.144;2022-10-16T09:38:30;101389.00;;;16.92
66403;BMP180;53212;52.112;5.144;2022-10-16T09:40:58;101394.80;;;16.90
66403;BMP180;53212;52.112;5.144;2022-10-16T09:43:26;101387.40;;;16.80
66403;BMP180;53212;52.112;5.144;2022-10-16T09:46:08;101385.40;;;16.90
66403;BMP180;53212;52.112;5.144;2022-10-16T09:48:47;101391.20;;;16.80
66403;BMP180;53212;52.112;5.144;2022-10-16T09:51:24;101390.00;;;16.90
66403;BMP180;53212;52.112;5.144;2022-10-16T09:54:15;101390.60;;;17.10
66403;BMP180;53212;52.112;5.144;2022-10-16T09:56:41;101392.60;;;17.10
66403;BMP180;53212;52.112;5.144;2022-10-16T10:01:49;101397.20;;;17.16
66403;BMP180;53212;52.112;5.144;2022-10-16T10:04:17;101408.40;;;17.30
66403;BMP180;53212;52.112;5.144;2022-10-16T10:06:56;101410.00;;;17.44
66403;BMP180;53212;52.112;5.144;2022-10-16T10:09:27;101410.00;;;17.50
66403;BMP180;53212;52.112;5.144;2022-10-16T10:11:58;101411.60;;;17.62
66403;BMP180;53212;52.112;5.144;2022-10-16T10:14:56;101416.60;;;17.80
66403;BMP180;53212;52.112;5.144;2022-10-16T10:17:27;101420.40;;;17.78
66403;BMP180;53212;52.112;5.144;2022-10-16T10:19:58;101420.80;;;17.70
66403;BMP180;53212;52.112;5.144;2022-10-16T10:33:25;101429.40;;;17.50
66403;BMP180;53212;52.112;5.144;2022-10-16T10:42:09;101438.20;;;18.10
66403;BMP180;53212;52.112;5.144;2022-10-16T10:50:57;101448.40;;;18.30
66403;BMP180;53212;52.112;5.144;2022-10-16T10:56:47;101446.40;;;18.50
66403;BMP180;53212;52.112;5.144;2022-10-16T11:02:17;101449.60;;;18.50
66403;BMP180;53212;52.112;5.144;2022-10-16T11:07:40;101463.60;;;18.28
66403;BMP180;53212;52.112;5.144;2022-10-16T11:10:53;101464.00;;;18.06
66403;BMP180;53212;52.112;5.144;2022-10-16T11:13:24;101467.00;;;18.10
66403;BMP180;53212;52.112;5.144;2022-10-16T11:15:55;101467.40;;;18.10
66403;BMP180;53212;52.112;5.144;2022-10-16T11:19:01;101470.60;;;17.90
66403;BMP180;53212;52.112;5.144;2022-10-16T11:21:24;101475.00;;;17.90
66403;BMP180;53212;52.112;5.144;2022-10-16T11:24:04;101478.00;;;17.90
66403;BMP180;53212;52.112;5.144;2022-10-16T11:26:35;101481.00;;;17.80
66403;BMP180;53212;52.112;5.144;2022-10-16T11:29:12;101486.20;;;17.80
66403;BMP180;53212;52.112;5.144;2022-10-16T11:31:46;101481.20;;;17.80
66403;BMP180;53212;52.112;5.144;2022-10-16T11:34:50;101485.60;;;17.92
66403;BMP180;53212;52.112;5.144;2022-10-16T11:37:26;101487.60;;;18.22
66403;BMP180;53212;52.112;5.144;2022-10-16T11:39:54;101495.00;;;18.52
66403;BMP180;53212;52.112;5.144;2022-10-16T11:42:33;101497.20;;;18.50
66403;BMP180;53212;52.112;5.144;2022-10-16T11:45:24;101499.80;;;18.50
66403;BMP180;53212;52.112;5.144;2022-10-16T11:48:00;101501.80;;;18.40
66403;BMP180;53212;52.112;5.144;2022-10-16T11:50:54;101508.20;;;18.20
66403;BMP180;53212;52.112;5.144;2022-10-16T11:53:45;101504.00;;;18.10
66403;BMP180;53212;52.112;5.144;2022-10-16T11:56:16;101502.60;;;18.10
66403;BMP180;53212;52.112;5.144;2022-10-16T11:59:06;101500.60;;;18.18
66403;BMP180;53212;52.112;5.144;2022-10-16T12:01:47;101503.00;;;18.12
66403;BMP180;53212;52.112;5.144;2022-10-16T12:04:34;101505.40;;;18.20
66403;BMP180;53212;52.112;5.144;2022-10-16T12:07:09;101504.80;;;18.30
66403;BMP180;53212;52.112;5.144;2022-10-16T12:09:39;101517.40;;;18.20
66403;BMP180;53212;52.112;5.144;2022-10-16T12:12:28;101516.40;;;18.30
66403;BMP180;53212;52.112;5.144;2022-10-16T12:15:38;101518.80;;;18.40
66403;BMP180;53212;52.112;5.144;2022-10-16T12:18:04;101517.60;;;18.30
66403;BMP180;53212;52.112;5.144;2022-10-16T12:20:33;101519.80;;;18.20
66403;BMP180;53212;52.112;5.144;2022-10-16T12:23:04;101524.40;;;18.40
66403;BMP180;53212;52.112;5.144;2022-10-16T12:25:34;101524.80;;;18.40
66403;BMP180;53212;52.112;5.144;2022-10-16T12:30:43;101526.60;;;18.40
66403;BMP180;53212;52.112;5.144;2022-10-16T12:33:29;101528.60;;;18.46
66403;BMP180;53212;52.112;5.144;2022-10-16T12:35:56;101532.20;;;18.40
66403;BMP180;53212;52.112;5.144;2022-10-16T12:38:51;101529.00;;;18.40
66403;BMP180;53212;52.112;5.144;2022-10-16T12:41:33;101529.60;;;18.30
66403;BMP180;53212;52.112;5.144;2022-10-16T12:44:01;101533.20;;;18.38
66403;BMP180;53212;52.112;5.144;2022-10-16T12:51:53;101535.40;;;18.10
66403;BMP180;53212;52.112;5.144;2022-10-16T12:54:31;101539.80;;;18.10
66403;BMP180;53212;52.112;5.144;2022-10-16T13:00:28;101536.80;;;18.40
66403;BMP180;53212;52.112;5.144;2022-10-16T13:06:06;101542.20;;;18.60
66403;BMP180;53212;52.112;5.144;2022-10-16T13:09:05;101540.40;;;18.62
66403;BMP180;53212;52.112;5.144;2022-10-16T13:12:05;101533.00;;;18.70
66403;BMP180;53212;52.112;5.144;2022-10-16T13:18:24;101543.80;;;18.74
66403;BMP180;53212;52.112;5.144;2022-10-16T13:21:39;101546.20;;;18.80
66403;BMP180;53212;52.112;5.144;2022-10-16T13:24:42;101549.40;;;18.90
66403;BMP180;53212;52.112;5.144;2022-10-16T13:30:20;101562.80;;;19.00
66403;BMP180;53212;52.112;5.144;2022-10-16T13:32:49;101556.80;;;19.00
66403;BMP180;53212;52.112;5.144;2022-10-16T13:35:22;101564.20;;;19.10
66403;BMP180;53212;52.112;5.144;2022-10-16T13:37:48;101567.60;;;19.00
66403;BMP180;53212;52.112;5.144;2022-10-16T13:40:22;101578.40;;;19.00
66403;BMP180;53212;52.112;5.144;2022-10-16T13:42:49;101579.60;;;19.10
66403;BMP180;53212;52.112;5.144;2022-10-16T13:45:22;101575.60;;;19.00
66403;BMP180;53212;52.112;5.144;2022-10-16T13:47:47;101572.60;;;19.00
66403;BMP180;53212;52.112;5.144;2022-10-16T13:50:18;101570.20;;;19.00
66403;BMP180;53212;52.112;5.144;2022-10-16T13:52:44;101567.00;;;19.10
66403;BMP180;53212;52.112;5.144;2022-10-16T13:55:15;101569.80;;;19.10
66403;BMP180;53212;52.112;5.144;2022-10-16T13:57:41;101577.80;;;19.10
66403;BMP180;53212;52.112;5.144;2022-10-16T14:00:26;101583.00;;;19.10
66403;BMP180;53212;52.112;5.144;2022-10-16T14:03:11;101586.20;;;19.10
66403;BMP180;53212;52.112;5.144;2022-10-16T14:05:48;101593.80;;;19.06
66403;BMP180;53212;52.112;5.144;2022-10-16T14:08:14;101587.20;;;18.90
66403;BMP180;53212;52.112;5.144;2022-10-16T14:10:40;101582.40;;;18.76
66403;BMP180;53212;52.112;5.144;2022-10-16T14:13:07;101578.60;;;18.60
66403;BMP180;53212;52.112;5.144;2022-10-16T14:15:36;101582.80;;;18.58
66403;BMP180;53212;52.112;5.144;2022-10-16T14:18:03;101583.40;;;18.60
66403;BMP180;53212;52.112;5.144;2022-10-16T14:20:32;101578.80;;;18.70
66403;BMP180;53212;52.112;5.144;2022-10-16T14:23:23;101574.20;;;18.60
66403;BMP180;53212;52.112;5.144;2022-10-16T14:25:53;101574.60;;;18.60
66403;BMP180;53212;52.112;5.144;2022-10-16T14:28:22;101579.40;;;18.62
66403;BMP180;53212;52.112;5.144;2022-10-16T14:30:56;101576.20;;;18.70
66403;BMP180;53212;52.112;5.144;2022-10-16T14:38:35;101585.60;;;18.60
66403;BMP180;53212;52.112;5.144;2022-10-16T14:41:00;101578.40;;;18.60
66403;BMP180;53212;52.112;5.144;2022-10-16T14:43:41;101576.40;;;18.66
66403;BMP180;53212;52.112;5.144;2022-10-16T14:46:21;101581.60;;;18.70
66403;BMP180;53212;52.112;5.144;2022-10-16T14:48:59;101586.80;;;18.70
66403;BMP180;53212;52.112;5.144;2022-10-16T14:51:26;101585.00;;;18.70
66403;BMP180;53212;52.112;5.144;2022-10-16T14:53:52;101593.20;;;18.70
66403;BMP180;53212;52.112;5.144;2022-10-16T14:56:24;101595.80;;;18.70
66403;BMP180;53212;52.112;5.144;2022-10-16T14:58:51;101593.80;;;18.70
66403;BMP180;53212;52.112;5.144;2022-10-16T15:01:17;101588.00;;;18.70
66403;BMP180;53212;52.112;5.144;2022-10-16T15:03:43;101590.60;;;18.60
66403;BMP180;53212;52.112;5.144;2022-10-16T15:06:16;101595.40;;;18.60
66403;BMP180;53212;52.112;5.144;2022-10-16T15:08:42;101591.00;;;18.50
66403;BMP180;53212;52.112;5.144;2022-10-16T15:11:15;101589.80;;;18.50
66403;BMP180;53212;52.112;5.144;2022-10-16T15:13:41;101592.00;;;18.40
66403;BMP180;53212;52.112;5.144;2022-10-16T15:16:16;101585.60;;;18.40
66403;BMP180;53212;52.112;5.144;2022-10-16T15:18:42;101585.20;;;18.30
66403;BMP180;53212;52.112;5.144;2022-10-16T15:21:21;101587.60;;;18.30
66403;BMP180;53212;52.112;5.144;2022-10-16T15:23:49;101586.20;;;18.20
66403;BMP180;53212;52.112;5.144;2022-10-16T15:26:14;101590.80;;;18.10
66403;BMP180;53212;52.112;5.144;2022-10-16T15:28:40;101592.40;;;18.00
66403;BMP180;53212;52.112;5.144;2022-10-16T15:31:05;101596.60;;;17.88
66403;BMP180;53212;52.112;5.144;2022-10-16T15:33:31;101592.60;;;17.70
66403;BMP180;53212;52.112;5.144;2022-10-16T15:35:59;101581.20;;;17.70
66403;BMP180;53212;52.112;5.144;2022-10-16T15:38:26;101568.60;;;17.60